sensor_id;sensor_type;location;lat;lon;timestamp;P1;durP1;ratioP1;P2;durP2;ratioP2
26951;SDS011;14507;52.418;13.398;2023-04-25T00:01:17;5.90;;;2.50;;
26951;SDS011;14507;52.418;13.398;2023-04-25T00:03:42;5.43;;;2.50;;
26951;SDS011;14507;52.418;13.398;2023-04-25T00:06:08;6.40;;;2.63;;
26951;SDS011;14507;52.418;13.398;2023-04-25T00:08:34;8.45;;;2.47;;
26951;SDS011;14507;52.418;13.398;2023-04-25T00:11:00;9.52;;;2.58;;
26951;SDS011;14507;52.418;13.398;2023-04-25T00:13:26;8.00;;;2.20;;
26951;SDS011;14507;52.418;13.398;2023-04-25T00:15:51;6.53;;;1.90;;
26951;SDS011;14507;52.418;13.398;2023-04-25T00:18:21;7.50;;;2.20;;
26951;SDS011;14507;52.418;13.398;2023-04-25T00:20:47;6.53;;;2.10;;
26951;SDS011;14507;52.418;13.398;2023-04-25T00:23:16;6.63;;;2.20;;
26951;SDS011;14507;52.418;13.398;2023-04-25T00:25:45;10.55;;;2.30;;
26951;SDS011;14507;52.418;13.398;2023-04-25T00:28:14;7.55;;;2.22;;
26951;SDS011;14507;52.418;13.398;2023-04-25T00:30:40;8.93;;;2.65;;
26951;SDS011;14507;52.418;13.398;2023-04-25T00:33:07;7.07;;;2.35;;
26951;SDS011;14507;52.418;13.398;2023-04-25T00:35:33;7.70;;;2.53;;
26951;SDS011;14507;52.418;13.398;2023-04-25T00:37:59;11.13;;;3.17;;
26951;SDS011;14507;52.418;13.398;2023-04-25T00:40:25;8.60;;;2.28;;
26951;SDS011;14507;52.418;13.398;2023-04-25T00:42:51;8.45;;;2.50;;
26951;SDS011;14507;52.418;13.398;2023-04-25T00:45:17;8.50;;;2.45;;
26951;SDS011;14507;52.418;13.398;2023-04-25T00:47:43;10.45;;;2.42;;
26951;SDS011;14507;52.418;13.398;2023-04-25T00:50:11;9.38;;;3.08;;
26951;SDS011;14507;52.418;13.398;2023-04-25T00:52:40;10.05;;;3.10;;
26951;SDS011;14507;52.418;13.398;2023-04-25T00:55:10;10.05;;;2.90;;
26951;SDS011;14507;52.418;13.398;2023-04-25T00:57:37;7.90;;;3.50;;
26951;SDS011;14507;52.418;13.398;2023-04-25T01:00:04;8.40;;;3.25;;
26951;SDS011;14507;52.418;13.398;2023-04-25T01:02:31;8.70;;;2.78;;
26951;SDS011;14507;52.418;13.398;2023-04-25T01:05:00;10.00;;;2.92;;
26951;SDS011;14507;52.418;13.398;2023-04-25T01:07:27;8.48;;;3.30;;
26951;SDS011;14507;52.418;13.398;2023-04-25T01:09:52;15.52;;;4.25;;
26951;SDS011;14507;52.418;13.398;2023-04-25T01:12:18;8.55;;;2.92;;
26951;SDS011;14507;52.418;13.398;2023-04-25T01:14:44;11.30;;;3.10;;
26951;SDS011;14507;52.418;13.398;2023-04-25T01:17:10;10.18;;;3.40;;
26951;SDS011;14507;52.418;13.398;2023-04-25T01:19:36;9.60;;;3.47;;
26951;SDS011;14507;52.418;13.398;2023-04-25T01:22:01;9.75;;;2.92;;
26951;SDS011;14507;52.418;13.398;2023-04-25T01:24:28;8.20;;;2.78;;
26951;SDS011;14507;52.418;13.398;2023-04-25T01:26:54;12.45;;;3.00;;
26951;SDS011;14507;52.418;13.398;2023-04-25T01:29:21;13.20;;;3.05;;
26951;SDS011;14507;52.418;13.398;2023-04-25T01:31:49;7.72;;;3.05;;
26951;SDS011;14507;52.418;13.398;2023-04-25T01:34:17;9.27;;;3.17;;
26951;SDS011;14507;52.418;13.398;2023-04-25T01:36:43;7.97;;;2.97;;
26951;SDS011;14507;52.418;13.398;2023-04-25T01:39:09;9.10;;;3.47;;
26951;SDS011;14507;52.418;13.398;2023-04-25T01:41:35;10.60;;;3.72;;
26951;SDS011;14507;52.418;13.398;2023-04-25T01:44:00;8.55;;;3.53;;
26951;SDS011;14507;52.418;13.398;2023-04-25T01:46:27;13.55;;;4.00;;
26951;SDS011;14507;52.418;13.398;2023-04-25T01:48:53;11.23;;;3.95;;
26951;SDS011;14507;52.418;13.398;2023-04-25T01:51:19;11.70;;;4.18;;
26951;SDS011;14507;52.418;13.398;2023-04-25T01:53:44;10.18;;;3.85;;
26951;SDS011;14507;52.418;13.398;2023-04-25T01:56:10;13.05;;;3.90;;
26951;SDS011;14507;52.418;13.398;2023-04-25T01:58:36;12.48;;;3.67;;
26951;SDS011;14507;52.418;13.398;2023-04-25T02:01:02;11.23;;;3.30;;
26951;SDS011;14507;52.418;13.398;2023-04-25T02:03:27;12.00;;;3.22;;
26951;SDS011;14507;52.418;13.398;2023-04-25T02:05:54;10.60;;;3.88;;
26951;SDS011;14507;52.418;13.398;2023-04-25T02:08:19;12.73;;;3.20;;
26951;SDS011;14507;52.418;13.398;2023-04-25T02:10:45;10.85;;;3.90;;
26951;SDS011;14507;52.418;13.398;2023-04-25T02:13:10;10.48;;;3.95;;
26951;SDS011;14507;52.418;13.398;2023-04-25T02:15:36;13.07;;;4.15;;
26951;SDS011;14507;52.418;13.398;2023-04-25T02:18:01;13.52;;;3.85;;
26951;SDS011;14507;52.418;13.398;2023-04-25T02:20:28;12.70;;;4.35;;
26951;SDS011;14507;52.418;13.398;2023-04-25T02:22:55;9.30;;;4.43;;
26951;SDS011;14507;52.418;13.398;2023-04-25T02:25:21;9.65;;;3.95;;
26951;SDS011;14507;52.418;13.398;2023-04-25T02:27:47;15.40;;;4.20;;
26951;SDS011;14507;52.418;13.398;2023-04-25T02:30:13;11.38;;;4.30;;
26951;SDS011;14507;52.418;13.398;2023-04-25T02:32:39;10.15;;;3.92;;
26951;SDS011;14507;52.418;13.398;2023-04-25T02:35:06;9.35;;;3.53;;
26951;SDS011;14507;52.418;13.398;2023-04-25T02:37:35;8.40;;;4.00;;
26951;SDS011;14507;52.418;13.398;2023-04-25T02:40:05;11.77;;;3.60;;
26951;SDS011;14507;52.418;13.398;2023-04-25T02:42:31;11.55;;;3.78;;
26951;SDS011;14507;52.418;13.398;2023-04-25T02:44:57;9.27;;;3.75;;
26951;SDS011;14507;52.418;13.398;2023-04-25T02:47:23;11.88;;;4.45;;
26951;SDS011;14507;52.418;13.398;2023-04-25T02:49:49;8.38;;;3.97;;
26951;SDS011;14507;52.418;13.398;2023-04-25T02:52:15;10.40;;;4.15;;
26951;SDS011;14507;52.418;13.398;2023-04-25T02:54:40;13.05;;;4.57;;
26951;SDS011;14507;52.418;13.398;2023-04-25T02:57:06;9.60;;;4.03;;
26951;SDS011;14507;52.418;13.398;2023-04-25T02:59:32;12.50;;;4.15;;
26951;SDS011;14507;52.418;13.398;2023-04-25T03:01:58;9.98;;;4.38;;
26951;SDS011;14507;52.418;13.398;2023-04-25T03:04:24;9.65;;;4.35;;
26951;SDS011;14507;52.418;13.398;2023-04-25T03:06:50;12.65;;;4.47;;
26951;SDS011;14507;52.418;13.398;2023-04-25T03:09:16;11.93;;;4.35;;
26951;SDS011;14507;52.418;13.398;2023-04-25T03:11:41;12.32;;;4.00;;
26951;SDS011;14507;52.418;13.398;2023-04-25T03:14:07;11.30;;;4.10;;
26951;SDS011;14507;52.418;13.398;2023-04-25T03:16:33;12.25;;;4.00;;
26951;SDS011;14507;52.418;13.398;2023-04-25T03:19:02;11.75;;;4.50;;
26951;SDS011;14507;52.418;13.398;2023-04-25T03:21:28;9.60;;;4.32;;
26951;SDS011;14507;52.418;13.398;2023-04-25T03:23:56;13.75;;;4.22;;
26951;SDS011;14507;52.418;13.398;2023-04-25T03:26:22;14.30;;;4.30;;
26951;SDS011;14507;52.418;13.398;2023-04-25T03:28:48;10.50;;;4.28;;
26951;SDS011;14507;52.418;13.398;2023-04-25T03:31:14;10.77;;;4.55;;
26951;SDS011;14507;52.418;13.398;2023-04-25T03:33:39;10.82;;;4.20;;
26951;SDS011;14507;52.418;13.398;2023-04-25T03:36:05;8.63;;;4.05;;
26951;SDS011;14507;52.418;13.398;2023-04-25T03:38:31;13.00;;;4.57;;
26951;SDS011;14507;52.418;13.398;2023-04-25T03:40:57;11.85;;;4.30;;
26951;SDS011;14507;52.418;13.398;2023-04-25T03:43:22;14.40;;;4.20;;
26951;SDS011;14507;52.418;13.398;2023-04-25T03:45:48;15.15;;;4.68;;
26951;SDS011;14507;52.418;13.398;2023-04-25T03:48:14;13.88;;;4.05;;
26951;SDS011;14507;52.418;13.398;2023-04-25T03:50:39;10.75;;;3.85;;
26951;SDS011;14507;52.418;13.398;2023-04-25T03:53:05;13.63;;;4.50;;
26951;SDS011;14507;52.418;13.398;2023-04-25T03:55:31;9.45;;;4.00;;
26951;SDS011;14507;52.418;13.398;2023-04-25T03:57:57;10.10;;;4.30;;
26951;SDS011;14507;52.418;13.398;2023-04-25T04:00:23;13.75;;;4.80;;
26951;SDS011;14507;52.418;13.398;2023-04-25T04:02:49;12.50;;;4.30;;
26951;SDS011;14507;52.418;13.398;2023-04-25T04:05:15;20.98;;;4.47;;
26951;SDS011;14507;52.418;13.398;2023-04-25T04:07:41;11.57;;;4.28;;
26951;SDS011;14507;52.418;13.398;2023-04-25T04:10:08;11.75;;;4.25;;
26951;SDS011;14507;52.418;13.398;2023-04-25T04:12:34;11.00;;;4.00;;
26951;SDS011;14507;52.418;13.398;2023-04-25T04:15:01;13.23;;;4.22;;
26951;SDS011;14507;52.418;13.398;2023-04-25T04:17:28;12.07;;;4.88;;
26951;SDS011;14507;52.418;13.398;2023-04-25T04:19:54;10.43;;;4.35;;
26951;SDS011;14507;52.418;13.398;2023-04-25T04:22:20;14.68;;;4.60;;
26951;SDS011;14507;52.418;13.398;2023-04-25T04:24:47;11.25;;;4.55;;
26951;SDS011;14507;52.418;13.398;2023-04-25T04:27:12;14.57;;;4.18;;
26951;SDS011;14507;52.418;13.398;2023-04-25T04:29:38;16.25;;;5.05;;
26951;SDS011;14507;52.418;13.398;2023-04-25T04:32:04;12.75;;;4.60;;
26951;SDS011;14507;52.418;13.398;2023-04-25T04:34:29;10.63;;;4.60;;
26951;SDS011;14507;52.418;13.398;2023-04-25T04:36:56;15.70;;;5.28;;
26951;SDS011;14507;52.418;13.398;2023-04-25T04:39:22;13.48;;;5.07;;
26951;SDS011;14507;52.418;13.398;2023-04-25T04:41:47;13.50;;;4.30;;
26951;SDS011;14507;52.418;13.398;2023-04-25T04:44:13;12.75;;;4.70;;
26951;SDS011;14507;52.418;13.398;2023-04-25T04:46:39;13.00;;;4.93;;
26951;SDS011;14507;52.418;13.398;2023-04-25T04:49:08;12.73;;;4.85;;
26951;SDS011;14507;52.418;13.398;2023-04-25T04:51:34;16.77;;;5.45;;
26951;SDS011;14507;52.418;13.398;2023-04-25T04:54:00;12.52;;;5.05;;
26951;SDS011;14507;52.418;13.398;2023-04-25T04:56:27;17.70;;;5.32;;
26951;SDS011;14507;52.418;13.398;2023-04-25T04:58:55;12.93;;;5.80;;
26951;SDS011;14507;52.418;13.398;2023-04-25T05:01:22;10.77;;;4.93;;
26951;SDS011;14507;52.418;13.398;2023-04-25T05:03:47;15.18;;;5.68;;
26951;SDS011;14507;52.418;13.398;2023-04-25T05:06:13;18.33;;;5.85;;
26951;SDS011;14507;52.418;13.398;2023-04-25T05:08:39;16.60;;;5.47;;
26951;SDS011;14507;52.418;13.398;2023-04-25T05:11:04;13.25;;;4.88;;
26951;SDS011;14507;52.418;13.398;2023-04-25T05:13:30;25.27;;;5.68;;
26951;SDS011;14507;52.418;13.398;2023-04-25T05:15:55;12.20;;;4.85;;
26951;SDS011;14507;52.418;13.398;2023-04-25T05:18:21;14.05;;;5.20;;
26951;SDS011;14507;52.418;13.398;2023-04-25T05:20:47;14.77;;;5.43;;
26951;SDS011;14507;52.418;13.398;2023-04-25T05:23:12;13.43;;;5.18;;
26951;SDS011;14507;52.418;13.398;2023-04-25T05:25:39;11.63;;;4.53;;
26951;SDS011;14507;52.418;13.398;2023-04-25T05:28:05;11.68;;;4.47;;
26951;SDS011;14507;52.418;13.398;2023-04-25T05:30:31;9.23;;;4.38;;
26951;SDS011;14507;52.418;13.398;2023-04-25T05:32:56;13.73;;;4.93;;
26951;SDS011;14507;52.418;13.398;2023-04-25T05:35:22;11.65;;;4.70;;
26951;SDS011;14507;52.418;13.398;2023-04-25T05:37:47;12.55;;;4.82;;
26951;SDS011;14507;52.418;13.398;2023-04-25T05:40:13;16.50;;;5.60;;
26951;SDS011;14507;52.418;13.398;2023-04-25T05:42:39;11.88;;;4.80;;
26951;SDS011;14507;52.418;13.398;2023-04-25T05:45:05;14.07;;;4.63;;
26951;SDS011;14507;52.418;13.398;2023-04-25T05:47:31;9.02;;;4.63;;
26951;SDS011;14507;52.418;13.398;2023-04-25T05:49:56;10.70;;;4.63;;
26951;SDS011;14507;52.418;13.398;2023-04-25T05:52:22;15.20;;;5.00;;
26951;SDS011;14507;52.418;13.398;2023-04-25T05:54:47;12.15;;;4.97;;
26951;SDS011;14507;52.418;13.398;2023-04-25T05:57:20;12.25;;;4.90;;
26951;SDS011;14507;52.418;13.398;2023-04-25T05:59:50;11.75;;;4.90;;
26951;SDS011;14507;52.418;13.398;2023-04-25T06:02:16;16.27;;;5.43;;
26951;SDS011;14507;52.418;13.398;2023-04-25T06:04:42;13.90;;;4.88;;
26951;SDS011;14507;52.418;13.398;2023-04-25T06:07:08;15.45;;;5.68;;
26951;SDS011;14507;52.418;13.398;2023-04-25T06:09:33;20.17;;;5.97;;
26951;SDS011;14507;52.418;13.398;2023-04-25T06:11:59;14.13;;;5.00;;
26951;SDS011;14507;52.418;13.398;2023-04-25T06:14:26;18.40;;;5.28;;
26951;SDS011;14507;52.418;13.398;2023-04-25T06:16:51;13.10;;;5.25;;
26951;SDS011;14507;52.418;13.398;2023-04-25T06:19:17;13.20;;;5.20;;
26951;SDS011;14507;52.418;13.398;2023-04-25T06:21:43;17.48;;;6.20;;
26951;SDS011;14507;52.418;13.398;2023-04-25T06:24:09;16.90;;;5.13;;
26951;SDS011;14507;52.418;13.398;2023-04-25T06:26:35;14.43;;;5.50;;
26951;SDS011;14507;52.418;13.398;2023-04-25T06:29:00;13.60;;;5.68;;
26951;SDS011;14507;52.418;13.398;2023-04-25T06:31:26;14.38;;;5.22;;
26951;SDS011;14507;52.418;13.398;2023-04-25T06:33:53;18.90;;;5.90;;
26951;SDS011;14507;52.418;13.398;2023-04-25T06:36:20;14.95;;;5.20;;
26951;SDS011;14507;52.418;13.398;2023-04-25T06:38:50;13.88;;;5.38;;
26951;SDS011;14507;52.418;13.398;2023-04-25T06:41:16;13.93;;;5.97;;
26951;SDS011;14507;52.418;13.398;2023-04-25T06:43:42;14.02;;;5.07;;
26951;SDS011;14507;52.418;13.398;2023-04-25T06:46:07;18.58;;;6.30;;
26951;SDS011;14507;52.418;13.398;2023-04-25T06:48:33;11.68;;;5.47;;
26951;SDS011;14507;52.418;13.398;2023-04-25T06:50:59;10.18;;;5.28;;
26951;SDS011;14507;52.418;13.398;2023-04-25T06:53:24;12.68;;;5.10;;
26951;SDS011;14507;52.418;13.398;2023-04-25T06:55:50;14.80;;;5.13;;
26951;SDS011;14507;52.418;13.398;2023-04-25T06:58:15;10.77;;;4.75;;
26951;SDS011;14507;52.418;13.398;2023-04-25T07:00:41;13.90;;;5.25;;
26951;SDS011;14507;52.418;13.398;2023-04-25T07:03:07;11.43;;;5.22;;
26951;SDS011;14507;52.418;13.398;2023-04-25T07:05:32;12.45;;;4.80;;
26951;SDS011;14507;52.418;13.398;2023-04-25T07:07:58;10.65;;;4.80;;
26951;SDS011;14507;52.418;13.398;2023-04-25T07:10:25;12.68;;;5.03;;
26951;SDS011;14507;52.418;13.398;2023-04-25T07:12:50;12.80;;;5.35;;
26951;SDS011;14507;52.418;13.398;2023-04-25T07:15:16;9.40;;;4.75;;
26951;SDS011;14507;52.418;13.398;2023-04-25T07:17:42;9.18;;;4.50;;
26951;SDS011;14507;52.418;13.398;2023-04-25T07:20:08;10.45;;;4.30;;
26951;SDS011;14507;52.418;13.398;2023-04-25T07:22:35;9.85;;;3.83;;
26951;SDS011;14507;52.418;13.398;2023-04-25T07:25:00;9.00;;;4.35;;
26951;SDS011;14507;52.418;13.398;2023-04-25T07:27:26;13.07;;;4.55;;
26951;SDS011;14507;52.418;13.398;2023-04-25T07:29:52;9.90;;;4.18;;
26951;SDS011;14507;52.418;13.398;2023-04-25T07:32:18;12.05;;;4.20;;
26951;SDS011;14507;52.418;13.398;2023-04-25T07:34:44;13.57;;;5.03;;
26951;SDS011;14507;52.418;13.398;2023-04-25T07:37:10;11.15;;;4.38;;
26951;SDS011;14507;52.418;13.398;2023-04-25T07:39:36;13.50;;;4.70;;
26951;SDS011;14507;52.418;13.398;2023-04-25T07:42:02;12.52;;;4.68;;
26951;SDS011;14507;52.418;13.398;2023-04-25T07:44:28;13.45;;;3.83;;
26951;SDS011;14507;52.418;13.398;2023-04-25T07:46:55;18.20;;;3.88;;
26951;SDS011;14507;52.418;13.398;2023-04-25T07:49:21;10.73;;;4.03;;
26951;SDS011;14507;52.418;13.398;2023-04-25T07:51:46;17.35;;;4.55;;
26951;SDS011;14507;52.418;13.398;2023-04-25T07:54:13;21.30;;;4.45;;
26951;SDS011;14507;52.418;13.398;2023-04-25T07:56:39;14.77;;;4.60;;
26951;SDS011;14507;52.418;13.398;2023-04-25T07:59:05;18.10;;;4.57;;
26951;SDS011;14507;52.418;13.398;2023-04-25T08:01:31;23.35;;;4.63;;
26951;SDS011;14507;52.418;13.398;2023-04-25T08:03:56;17.35;;;5.13;;
26951;SDS011;14507;52.418;13.398;2023-04-25T08:06:24;23.17;;;5.65;;
26951;SDS011;14507;52.418;13.398;2023-04-25T08:11:16;22.77;;;5.53;;
26951;SDS011;14507;52.418;13.398;2023-04-25T08:13:41;18.33;;;4.97;;
26951;SDS011;14507;52.418;13.398;2023-04-25T08:16:07;20.42;;;4.55;;
26951;SDS011;14507;52.418;13.398;2023-04-25T08:18:33;23.67;;;4.63;;
26951;SDS011;14507;52.418;13.398;2023-04-25T08:20:58;16.65;;;3.97;;
26951;SDS011;14507;52.418;13.398;2023-04-25T08:23:24;20.08;;;4.60;;
26951;SDS011;14507;52.418;13.398;2023-04-25T08:25:50;15.35;;;4.50;;
26951;SDS011;14507;52.418;13.398;2023-04-25T08:28:16;23.38;;;4.57;;
26951;SDS011;14507;52.418;13.398;2023-04-25T08:30:41;20.85;;;5.10;;
26951;SDS011;14507;52.418;13.398;2023-04-25T08:33:07;19.83;;;4.00;;
26951;SDS011;14507;52.418;13.398;2023-04-25T08:35:33;24.85;;;4.65;;
26951;SDS011;14507;52.418;13.398;2023-04-25T08:37:58;22.58;;;4.28;;
26951;SDS011;14507;52.418;13.398;2023-04-25T08:40:26;18.00;;;3.97;;
26951;SDS011;14507;52.418;13.398;2023-04-25T08:42:55;15.98;;;3.83;;
26951;SDS011;14507;52.418;13.398;2023-04-25T08:45:23;14.73;;;3.50;;
26951;SDS011;14507;52.418;13.398;2023-04-25T08:50:17;14.05;;;3.20;;
26951;SDS011;14507;52.418;13.398;2023-04-25T08:52:46;15.02;;;3.50;;
26951;SDS011;14507;52.418;13.398;2023-04-25T08:55:13;15.50;;;3.53;;
26951;SDS011;14507;52.418;13.398;2023-04-25T08:57:40;15.85;;;3.30;;
26951;SDS011;14507;52.418;13.398;2023-04-25T09:00:11;18.77;;;3.70;;
26951;SDS011;14507;52.418;13.398;2023-04-25T09:02:38;10.00;;;2.47;;
26951;SDS011;14507;52.418;13.398;2023-04-25T09:05:05;14.32;;;2.70;;
26951;SDS011;14507;52.418;13.398;2023-04-25T09:07:31;14.85;;;3.15;;
26951;SDS011;14507;52.418;13.398;2023-04-25T09:09:57;14.65;;;3.30;;
26951;SDS011;14507;52.418;13.398;2023-04-25T09:12:26;12.95;;;2.88;;
26951;SDS011;14507;52.418;13.398;2023-04-25T09:15:09;16.02;;;3.50;;
26951;SDS011;14507;52.418;13.398;2023-04-25T09:17:37;16.90;;;3.72;;
26951;SDS011;14507;52.418;13.398;2023-04-25T09:20:06;16.23;;;3.25;;
26951;SDS011;14507;52.418;13.398;2023-04-25T09:22:37;16.17;;;2.85;;
26951;SDS011;14507;52.418;13.398;2023-04-25T09:25:09;20.55;;;3.25;;
26951;SDS011;14507;52.418;13.398;2023-04-25T09:27:36;17.63;;;2.88;;
26951;SDS011;14507;52.418;13.398;2023-04-25T09:30:15;12.85;;;3.22;;
26951;SDS011;14507;52.418;13.398;2023-04-25T09:32:41;10.70;;;3.13;;
26951;SDS011;14507;52.418;13.398;2023-04-25T09:35:08;12.82;;;3.08;;
26951;SDS011;14507;52.418;13.398;2023-04-25T09:37:34;15.43;;;3.58;;
26951;SDS011;14507;52.418;13.398;2023-04-25T09:40:00;13.77;;;3.03;;
26951;SDS011;14507;52.418;13.398;2023-04-25T09:42:31;11.50;;;3.05;;
26951;SDS011;14507;52.418;13.398;2023-04-25T09:44:59;13.57;;;3.22;;
26951;SDS011;14507;52.418;13.398;2023-04-25T09:47:29;21.38;;;3.80;;
26951;SDS011;14507;52.418;13.398;2023-04-25T09:49:54;14.05;;;2.85;;
26951;SDS011;14507;52.418;13.398;2023-04-25T09:52:21;20.88;;;3.50;;
26951;SDS011;14507;52.418;13.398;2023-04-25T09:54:48;14.90;;;3.30;;
26951;SDS011;14507;52.418;13.398;2023-04-25T09:57:19;18.23;;;3.10;;
26951;SDS011;14507;52.418;13.398;2023-04-25T09:59:50;15.38;;;3.25;;
26951;SDS011;14507;52.418;13.398;2023-04-25T10:02:17;15.02;;;3.28;;
26951;SDS011;14507;52.418;13.398;2023-04-25T10:04:47;19.95;;;3.25;;
26951;SDS011;14507;52.418;13.398;2023-04-25T10:07:16;19.35;;;2.85;;
26951;SDS011;14507;52.418;13.398;2023-04-25T10:09:42;17.63;;;3.25;;
26951;SDS011;14507;52.418;13.398;2023-04-25T10:12:10;16.08;;;3.38;;
26951;SDS011;14507;52.418;13.398;2023-04-25T10:14:36;10.85;;;3.35;;
26951;SDS011;14507;52.418;13.398;2023-04-25T10:17:02;13.68;;;3.08;;
26951;SDS011;14507;52.418;13.398;2023-04-25T10:19:28;15.75;;;3.30;;
26951;SDS011;14507;52.418;13.398;2023-04-25T10:22:14;16.45;;;3.42;;
26951;SDS011;14507;52.418;13.398;2023-04-25T10:24:43;15.40;;;3.22;;
26951;SDS011;14507;52.418;13.398;2023-04-25T10:27:11;14.98;;;2.75;;
26951;SDS011;14507;52.418;13.398;2023-04-25T10:29:37;13.88;;;2.72;;
26951;SDS011;14507;52.418;13.398;2023-04-25T10:32:03;18.10;;;2.70;;
26951;SDS011;14507;52.418;13.398;2023-04-25T10:34:39;12.85;;;2.90;;
26951;SDS011;14507;52.418;13.398;2023-04-25T10:37:08;15.85;;;2.75;;
26951;SDS011;14507;52.418;13.398;2023-04-25T10:39:38;13.52;;;2.28;;
26951;SDS011;14507;52.418;13.398;2023-04-25T10:42:05;9.27;;;2.55;;
26951;SDS011;14507;52.418;13.398;2023-04-25T10:44:32;17.90;;;3.60;;
26951;SDS011;14507;52.418;13.398;2023-04-25T10:47:01;12.35;;;3.00;;
26951;SDS011;14507;52.418;13.398;2023-04-25T10:57:25;12.48;;;2.63;;
26951;SDS011;14507;52.418;13.398;2023-04-25T10:59:57;13.52;;;2.97;;
26951;SDS011;14507;52.418;13.398;2023-04-25T11:02:26;17.23;;;2.75;;
26951;SDS011;14507;52.418;13.398;2023-04-25T11:04:53;14.63;;;2.65;;
26951;SDS011;14507;52.418;13.398;2023-04-25T11:07:32;12.30;;;2.45;;
26951;SDS011;14507;52.418;13.398;2023-04-25T11:10:03;11.90;;;2.40;;
26951;SDS011;14507;52.418;13.398;2023-04-25T11:12:30;12.23;;;2.55;;
26951;SDS011;14507;52.418;13.398;2023-04-25T11:15:03;12.93;;;2.40;;
26951;SDS011;14507;52.418;13.398;2023-04-25T11:17:30;14.85;;;2.38;;
26951;SDS011;14507;52.418;13.398;2023-04-25T11:19:56;9.52;;;2.40;;
26951;SDS011;14507;52.418;13.398;2023-04-25T11:22:22;12.45;;;2.70;;
26951;SDS011;14507;52.418;13.398;2023-04-25T11:24:48;10.77;;;2.50;;
26951;SDS011;14507;52.418;13.398;2023-04-25T11:27:13;12.25;;;2.67;;
26951;SDS011;14507;52.418;13.398;2023-04-25T11:29:40;12.85;;;2.47;;
26951;SDS011;14507;52.418;13.398;2023-04-25T11:32:06;13.40;;;2.78;;
26951;SDS011;14507;52.418;13.398;2023-04-25T11:34:32;12.93;;;2.70;;
26951;SDS011;14507;52.418;13.398;2023-04-25T11:36:59;9.52;;;2.42;;
26951;SDS011;14507;52.418;13.398;2023-04-25T11:39:26;9.23;;;2.03;;
26951;SDS011;14507;52.418;13.398;2023-04-25T11:41:53;9.30;;;2.05;;
26951;SDS011;14507;52.418;13.398;2023-04-25T11:44:19;7.22;;;2.13;;
26951;SDS011;14507;52.418;13.398;2023-04-25T11:46:46;10.55;;;2.15;;
26951;SDS011;14507;52.418;13.398;2023-04-25T11:49:13;13.77;;;2.28;;
26951;SDS011;14507;52.418;13.398;2023-04-25T11:54:09;16.42;;;2.45;;
26951;SDS011;14507;52.418;13.398;2023-04-25T11:56:35;12.05;;;1.95;;
26951;SDS011;14507;52.418;13.398;2023-04-25T11:59:01;8.32;;;2.10;;
26951;SDS011;14507;52.418;13.398;2023-04-25T12:03:58;11.13;;;1.98;;
26951;SDS011;14507;52.418;13.398;2023-04-25T12:06:36;16.33;;;2.25;;
26951;SDS011;14507;52.418;13.398;2023-04-25T12:09:06;11.13;;;2.30;;
26951;SDS011;14507;52.418;13.398;2023-04-25T12:11:40;7.97;;;1.52;;
26951;SDS011;14507;52.418;13.398;2023-04-25T12:14:06;7.90;;;1.90;;
26951;SDS011;14507;52.418;13.398;2023-04-25T12:16:42;8.23;;;2.08;;
26951;SDS011;14507;52.418;13.398;2023-04-25T12:19:14;8.90;;;2.45;;
26951;SDS011;14507;52.418;13.398;2023-04-25T12:21:40;10.20;;;2.03;;
26951;SDS011;14507;52.418;13.398;2023-04-25T12:24:13;9.52;;;2.50;;
26951;SDS011;14507;52.418;13.398;2023-04-25T12:29:17;11.48;;;2.35;;
26951;SDS011;14507;52.418;13.398;2023-04-25T12:31:44;8.35;;;1.73;;
26951;SDS011;14507;52.418;13.398;2023-04-25T12:34:10;8.93;;;1.90;;
26951;SDS011;14507;52.418;13.398;2023-04-25T12:36:36;12.75;;;2.38;;
26951;SDS011;14507;52.418;13.398;2023-04-25T12:39:02;9.38;;;2.25;;
26951;SDS011;14507;52.418;13.398;2023-04-25T12:41:29;7.10;;;1.73;;
26951;SDS011;14507;52.418;13.398;2023-04-25T12:43:55;9.80;;;2.30;;
26951;SDS011;14507;52.418;13.398;2023-04-25T12:46:21;10.85;;;2.35;;
26951;SDS011;14507;52.418;13.398;2023-04-25T12:48:47;10.98;;;2.08;;
26951;SDS011;14507;52.418;13.398;2023-04-25T12:51:13;12.23;;;1.90;;
26951;SDS011;14507;52.418;13.398;2023-04-25T12:53:39;7.85;;;1.90;;
26951;SDS011;14507;52.418;13.398;2023-04-25T12:56:06;11.80;;;2.28;;
26951;SDS011;14507;52.418;13.398;2023-04-25T12:58:32;10.38;;;2.28;;
26951;SDS011;14507;52.418;13.398;2023-04-25T13:00:58;10.82;;;2.25;;
26951;SDS011;14507;52.418;13.398;2023-04-25T13:03:24;10.85;;;2.65;;
26951;SDS011;14507;52.418;13.398;2023-04-25T13:05:50;10.75;;;2.60;;
26951;SDS011;14507;52.418;13.398;2023-04-25T13:08:17;13.23;;;2.53;;
26951;SDS011;14507;52.418;13.398;2023-04-25T13:10:43;9.65;;;1.88;;
26951;SDS011;14507;52.418;13.398;2023-04-25T13:13:09;7.95;;;2.00;;
26951;SDS011;14507;52.418;13.398;2023-04-25T13:15:35;8.90;;;2.28;;
26951;SDS011;14507;52.418;13.398;2023-04-25T13:18:02;9.48;;;1.67;;
26951;SDS011;14507;52.418;13.398;2023-04-25T13:20:31;9.25;;;2.00;;
26951;SDS011;14507;52.418;13.398;2023-04-25T13:22:57;11.43;;;2.40;;
26951;SDS011;14507;52.418;13.398;2023-04-25T13:25:23;11.63;;;2.42;;
26951;SDS011;14507;52.418;13.398;2023-04-25T13:27:48;11.13;;;2.88;;
26951;SDS011;14507;52.418;13.398;2023-04-25T13:30:14;8.88;;;1.92;;
26951;SDS011;14507;52.418;13.398;2023-04-25T13:32:40;8.82;;;1.73;;
26951;SDS011;14507;52.418;13.398;2023-04-25T13:35:10;7.32;;;1.67;;
26951;SDS011;14507;52.418;13.398;2023-04-25T13:37:38;10.00;;;2.40;;
26951;SDS011;14507;52.418;13.398;2023-04-25T13:40:06;8.77;;;2.08;;
26951;SDS011;14507;52.418;13.398;2023-04-25T13:42:34;10.90;;;1.90;;
26951;SDS011;14507;52.418;13.398;2023-04-25T13:45:01;9.85;;;1.90;;
26951;SDS011;14507;52.418;13.398;2023-04-25T13:47:29;9.98;;;2.20;;
26951;SDS011;14507;52.418;13.398;2023-04-25T13:49:55;7.20;;;1.60;;
26951;SDS011;14507;52.418;13.398;2023-04-25T13:52:21;8.23;;;2.03;;
26951;SDS011;14507;52.418;13.398;2023-04-25T13:54:49;15.38;;;2.42;;
26951;SDS011;14507;52.418;13.398;2023-04-25T13:57:15;7.85;;;1.92;;
26951;SDS011;14507;52.418;13.398;2023-04-25T13:59:41;9.00;;;1.70;;
26951;SDS011;14507;52.418;13.398;2023-04-25T14:02:07;9.00;;;1.90;;
26951;SDS011;14507;52.418;13.398;2023-04-25T14:04:32;11.88;;;2.42;;
26951;SDS011;14507;52.418;13.398;2023-04-25T14:06:58;10.13;;;1.80;;
26951;SDS011;14507;52.418;13.398;2023-04-25T14:09:24;6.95;;;2.13;;
26951;SDS011;14507;52.418;13.398;2023-04-25T14:11:53;8.05;;;1.88;;
26951;SDS011;14507;52.418;13.398;2023-04-25T14:14:20;10.13;;;2.50;;
26951;SDS011;14507;52.418;13.398;2023-04-25T14:16:46;16.48;;;2.00;;
26951;SDS011;14507;52.418;13.398;2023-04-25T14:19:16;11.32;;;1.83;;
26951;SDS011;14507;52.418;13.398;2023-04-25T14:21:43;11.52;;;2.25;;
26951;SDS011;14507;52.418;13.398;2023-04-25T14:24:08;9.20;;;2.15;;
26951;SDS011;14507;52.418;13.398;2023-04-25T14:26:35;12.05;;;1.70;;
26951;SDS011;14507;52.418;13.398;2023-04-25T14:29:03;9.18;;;1.95;;
26951;SDS011;14507;52.418;13.398;2023-04-25T14:31:30;7.43;;;2.03;;
26951;SDS011;14507;52.418;13.398;2023-04-25T14:33:56;12.40;;;1.88;;
26951;SDS011;14507;52.418;13.398;2023-04-25T14:36:22;9.40;;;1.77;;
26951;SDS011;14507;52.418;13.398;2023-04-25T14:38:47;12.32;;;1.95;;
26951;SDS011;14507;52.418;13.398;2023-04-25T14:41:13;8.20;;;2.22;;
26951;SDS011;14507;52.418;13.398;2023-04-25T14:43:39;7.85;;;2.05;;